KHIO

Portland-Hillsboro Airport

Portland, Oregon, USA
METAR KHIO 201953Z VRB03KT 3SM HZ CLR 24/14 A2999 RMK AO2 SLP154 T02390139
Observed Flight Rules
Aug-20 @ 19:53 UTC (37 minutes ago) Marginal Visual Flight Rules
Wind Visibility Clouds Conditions
Variable at 3 knots 3 miles
  • Clear skies
  • Haze
Temperatures Readings
Current 24°C / 75°F
Dewpoint 14°C / 57°F
Humidity 54%
Altimeter 29.99" Hg
Pressure 1015.4 hPa
Elevation 68
METAR KHIO 201953Z VRB03KT 3SM HZ CLR 24/14 A2999 RMK AO2 SLP154 T02390139
Observed Flight Rules
Aug-20 @ 19:53 UTC
(37 minutes ago)
MVFR
Wind Visibility
Variable at 3 knots 3 miles
Clouds
  • Clear skies
Conditions
  • Haze
Temperature Dewpoint
24°C / 75°F 14°C / 57°F
Humidity Altimeter Pressure
54% 29.99" Hg 1015.4 hPa